AAY9876 KPIE-CYUL
Flight info
| Callsign | AAY9876 |
|---|---|
| Flight time | 2h 48m |
| Altitude | 41000 |
| Route | LLRGO1 CAMJO DCT TEEEM DCT SHRIL Q75 ILBEE DCT MASHI DCT VIT DCT ESL DCT MIROY DCT PSB DCT SYR DCT ART IMPAC4 |
| Aircraft | B38M/M-SDE1FGHILORVWXY/HB1 |
Departure
| Time | 2026-05-05 02:00 |
|---|---|
| Airport | St. Petersburg Clearwater International Airport (KPIE) |
Arrival
| Time | 2026-05-05 04:48 |
|---|---|
| Airport | Montreal / Pierre Elliott Trudeau International Airport (CYUL) |
| Time | Latitude | Longitude | Altitude | Speed | Heading |
|---|---|---|---|---|---|
| 2026-05-05 01:37 | 27.90748 | -82.69339 | 27 ft | 0 kts | 178° |
| 2026-05-05 01:52 | 27.90767 | -82.69340 | 27 ft | 4 kts | 178° |
| 2026-05-05 01:52 | 27.90794 | -82.69341 | 27 ft | 3 kts | 178° |
| 2026-05-05 01:52 | 27.90813 | -82.69343 | 27 ft | 4 kts | 144° |
| 2026-05-05 01:53 | 27.90827 | -82.69354 | 27 ft | 0 kts | 149° |
| 2026-05-05 01:56 | 27.90823 | -82.69346 | 27 ft | 4 kts | 102° |
| 2026-05-05 01:56 | 27.90830 | -82.69246 | 27 ft | 19 kts | 87° |
| 2026-05-05 01:56 | 27.90836 | -82.69087 | 27 ft | 23 kts | 88° |
| 2026-05-05 01:56 | 27.90832 | -82.68973 | 27 ft | 7 kts | 122° |
| 2026-05-05 01:57 | 27.90792 | -82.68959 | 27 ft | 15 kts | 169° |
| 2026-05-05 01:57 | 27.90639 | -82.68932 | 27 ft | 27 kts | 171° |
| 2026-05-05 01:57 | 27.90454 | -82.68900 | 27 ft | 28 kts | 171° |
| 2026-05-05 01:57 | 27.90257 | -82.68866 | 26 ft | 26 kts | 171° |
| 2026-05-05 01:58 | 27.90069 | -82.68863 | 25 ft | 28 kts | 182° |
| 2026-05-05 01:58 | 27.89874 | -82.68854 | 26 ft | 26 kts | 173° |
| 2026-05-05 01:58 | 27.89704 | -82.68811 | 28 ft | 22 kts | 140° |
| 2026-05-05 01:58 | 27.89700 | -82.68694 | 25 ft | 18 kts | 82° |
| 2026-05-05 01:59 | 27.89724 | -82.68620 | 22 ft | 8 kts | 21° |
| 2026-05-05 01:59 | 27.89809 | -82.68630 | 23 ft | 27 kts | 351° |
| 2026-05-05 01:59 | 27.90272 | -82.68711 | 29 ft | 104 kts | 351° |
| 2026-05-05 01:59 | 27.91191 | -82.68872 | 95 ft | 155 kts | 351° |
| 2026-05-05 02:00 | 27.92311 | -82.69067 | 624 ft | 169 kts | 351° |
| 2026-05-05 02:00 | 27.93457 | -82.69283 | 1034 ft | 169 kts | 350° |
| 2026-05-05 02:00 | 27.94645 | -82.69443 | 1801 ft | 176 kts | 355° |
| 2026-05-05 02:00 | 27.95488 | -82.69514 | 2336 ft | 191 kts | 357° |
| 2026-05-05 02:01 | 27.96904 | -82.69627 | 3137 ft | 215 kts | 357° |
| 2026-05-05 02:01 | 27.98463 | -82.69759 | 4002 ft | 235 kts | 358° |
| 2026-05-05 02:01 | 28.00170 | -82.69911 | 4867 ft | 256 kts | 358° |
| 2026-05-05 02:01 | 28.01991 | -82.70075 | 5721 ft | 273 kts | 357° |
| 2026-05-05 02:02 | 28.03918 | -82.70251 | 6807 ft | 279 kts | 356° |
| 2026-05-05 02:02 | 28.05882 | -82.70431 | 7893 ft | 286 kts | 356° |
| 2026-05-05 02:02 | 28.07895 | -82.70617 | 8976 ft | 292 kts | 355° |
| 2026-05-05 02:02 | 28.09916 | -82.70804 | 10027 ft | 297 kts | 355° |
| 2026-05-05 02:03 | 28.12058 | -82.70839 | 10871 ft | 313 kts | 0° |
| 2026-05-05 02:03 | 28.14260 | -82.70812 | 11613 ft | 328 kts | 359° |
| 2026-05-05 02:03 | 28.16579 | -82.70797 | 12494 ft | 338 kts | 358° |
| 2026-05-05 02:03 | 28.18951 | -82.70791 | 13597 ft | 340 kts | 358° |
| 2026-05-05 02:04 | 28.21326 | -82.70788 | 14694 ft | 344 kts | 357° |
| 2026-05-05 02:04 | 28.23739 | -82.70786 | 15728 ft | 349 kts | 357° |
| 2026-05-05 02:04 | 28.26185 | -82.70387 | 16706 ft | 361 kts | 15° |
| 2026-05-05 02:04 | 28.28433 | -82.69033 | 17636 ft | 375 kts | 34° |
| 2026-05-05 02:05 | 28.30256 | -82.66865 | 18500 ft | 387 kts | 50° |
| 2026-05-05 02:05 | 28.31899 | -82.64455 | 19310 ft | 393 kts | 49° |
| 2026-05-05 02:05 | 28.33610 | -82.62000 | 20116 ft | 398 kts | 46° |
| 2026-05-05 02:05 | 28.35681 | -82.59949 | 20910 ft | 394 kts | 27° |
| 2026-05-05 02:06 | 28.38180 | -82.58750 | 21675 ft | 388 kts | 8° |
| 2026-05-05 02:06 | 28.40842 | -82.58419 | 22435 ft | 384 kts | 355° |
| 2026-05-05 02:06 | 28.43494 | -82.58376 | 23153 ft | 387 kts | 354° |
| 2026-05-05 02:06 | 28.46200 | -82.58384 | 23868 ft | 390 kts | 353° |
| 2026-05-05 02:07 | 28.48938 | -82.58424 | 24563 ft | 395 kts | 353° |
| 2026-05-05 02:07 | 28.51700 | -82.58478 | 25250 ft | 398 kts | 353° |
| 2026-05-05 02:07 | 28.54483 | -82.58540 | 25903 ft | 401 kts | 352° |
| 2026-05-05 02:07 | 28.57286 | -82.58607 | 26567 ft | 404 kts | 352° |
| 2026-05-05 02:08 | 28.60080 | -82.58675 | 27178 ft | 407 kts | 352° |
| 2026-05-05 02:08 | 28.62924 | -82.58746 | 27761 ft | 410 kts | 352° |
| 2026-05-05 02:08 | 28.65790 | -82.58818 | 28334 ft | 413 kts | 351° |
| 2026-05-05 02:08 | 28.68636 | -82.59135 | 28874 ft | 410 kts | 345° |
| 2026-05-05 02:09 | 28.71483 | -82.59576 | 29420 ft | 414 kts | 345° |
| 2026-05-05 02:09 | 28.74351 | -82.59993 | 29951 ft | 416 kts | 345° |
| 2026-05-05 02:09 | 28.77240 | -82.60399 | 30439 ft | 420 kts | 345° |
| 2026-05-05 02:09 | 28.80157 | -82.60802 | 30925 ft | 423 kts | 345° |
| 2026-05-05 02:10 | 28.83051 | -82.61200 | 31466 ft | 424 kts | 346° |
| 2026-05-05 02:10 | 28.85993 | -82.61605 | 31927 ft | 427 kts | 346° |
| 2026-05-05 02:10 | 28.88951 | -82.62012 | 32416 ft | 429 kts | 345° |
| 2026-05-05 02:10 | 28.91930 | -82.62422 | 32877 ft | 432 kts | 345° |
| 2026-05-05 02:11 | 28.94925 | -82.62835 | 33345 ft | 433 kts | 345° |
| 2026-05-05 02:11 | 28.97929 | -82.63248 | 33772 ft | 436 kts | 346° |
| 2026-05-05 02:11 | 29.00952 | -82.63665 | 34244 ft | 437 kts | 346° |
| 2026-05-05 02:11 | 29.03964 | -82.64081 | 34819 ft | 436 kts | 345° |
| 2026-05-05 02:12 | 29.06944 | -82.64492 | 35300 ft | 436 kts | 345° |
| 2026-05-05 02:12 | 29.12967 | -82.65324 | 36220 ft | 436 kts | 345° |
| 2026-05-05 02:12 | 29.15983 | -82.65742 | 36651 ft | 436 kts | 345° |
| 2026-05-05 02:13 | 29.19005 | -82.66160 | 37060 ft | 437 kts | 345° |
| 2026-05-05 02:13 | 29.22025 | -82.66577 | 37516 ft | 436 kts | 345° |
| 2026-05-05 02:13 | 29.25030 | -82.66993 | 37988 ft | 434 kts | 345° |
| 2026-05-05 02:13 | 29.28000 | -82.67405 | 38408 ft | 433 kts | 345° |
| 2026-05-05 02:14 | 29.30996 | -82.67821 | 38736 ft | 434 kts | 344° |
| 2026-05-05 02:14 | 29.34002 | -82.68238 | 39060 ft | 434 kts | 344° |
| 2026-05-05 02:14 | 29.37008 | -82.68655 | 39364 ft | 435 kts | 345° |
| 2026-05-05 02:14 | 29.40025 | -82.69074 | 39657 ft | 436 kts | 345° |
| 2026-05-05 02:15 | 29.43076 | -82.69287 | 39980 ft | 444 kts | 352° |
| 2026-05-05 02:15 | 29.46163 | -82.69278 | 40283 ft | 443 kts | 351° |
| 2026-05-05 02:15 | 29.49247 | -82.69271 | 40558 ft | 443 kts | 351° |
| 2026-05-05 02:15 | 29.52329 | -82.69255 | 40838 ft | 443 kts | 351° |
| 2026-05-05 02:16 | 29.55378 | -82.69237 | 41065 ft | 444 kts | 351° |
| 2026-05-05 02:16 | 29.61566 | -82.69199 | 41101 ft | 441 kts | 351° |
| 2026-05-05 02:17 | 29.67686 | -82.69161 | 41094 ft | 441 kts | 351° |
| 2026-05-05 02:17 | 29.73828 | -82.69122 | 41089 ft | 441 kts | 351° |
| 2026-05-05 02:18 | 29.79981 | -82.69084 | 41093 ft | 441 kts | 351° |
| 2026-05-05 02:18 | 29.86088 | -82.69045 | 41087 ft | 441 kts | 351° |
| 2026-05-05 02:19 | 29.92243 | -82.69007 | 41097 ft | 442 kts | 351° |
| 2026-05-05 02:19 | 29.98384 | -82.68968 | 41089 ft | 442 kts | 351° |
| 2026-05-05 02:20 | 30.04548 | -82.68929 | 41085 ft | 442 kts | 351° |
| 2026-05-05 02:20 | 30.10722 | -82.68891 | 41094 ft | 443 kts | 351° |
| 2026-05-05 02:21 | 30.16885 | -82.68852 | 41092 ft | 443 kts | 351° |
| 2026-05-05 02:21 | 30.23018 | -82.68814 | 41086 ft | 443 kts | 351° |
| 2026-05-05 02:22 | 30.29185 | -82.68775 | 41095 ft | 443 kts | 351° |
| 2026-05-05 02:22 | 30.35360 | -82.68737 | 41085 ft | 443 kts | 351° |
| 2026-05-05 02:23 | 30.41496 | -82.68698 | 41083 ft | 443 kts | 351° |
| 2026-05-05 02:23 | 30.47658 | -82.68659 | 41080 ft | 442 kts | 351° |
| 2026-05-05 02:23 | 30.50753 | -82.68321 | 41060 ft | 456 kts | 5° |
| 2026-05-05 02:24 | 30.53805 | -82.67111 | 41102 ft | 466 kts | 12° |
| 2026-05-05 02:24 | 30.59853 | -82.64445 | 41077 ft | 468 kts | 13° |
| 2026-05-05 02:25 | 30.65927 | -82.61656 | 41082 ft | 469 kts | 13° |
| 2026-05-05 02:25 | 30.71988 | -82.58838 | 41080 ft | 469 kts | 13° |
| 2026-05-05 02:26 | 30.78045 | -82.56017 | 41082 ft | 469 kts | 13° |
| 2026-05-05 02:26 | 30.84077 | -82.53203 | 41081 ft | 469 kts | 13° |
| 2026-05-05 02:27 | 30.90137 | -82.50371 | 41083 ft | 469 kts | 13° |
| 2026-05-05 02:27 | 30.96195 | -82.47537 | 41080 ft | 469 kts | 13° |
| 2026-05-05 02:28 | 31.02252 | -82.44700 | 41083 ft | 469 kts | 13° |
| 2026-05-05 02:28 | 31.08244 | -82.41889 | 41082 ft | 469 kts | 13° |
| 2026-05-05 02:29 | 31.14312 | -82.39038 | 41093 ft | 469 kts | 13° |
| 2026-05-05 02:29 | 31.20332 | -82.36207 | 41091 ft | 469 kts | 13° |
| 2026-05-05 02:30 | 31.26357 | -82.33369 | 41091 ft | 469 kts | 13° |
| 2026-05-05 02:30 | 31.32422 | -82.30508 | 41093 ft | 469 kts | 13° |
| 2026-05-05 02:31 | 31.38487 | -82.27643 | 41093 ft | 470 kts | 13° |
| 2026-05-05 02:31 | 31.44528 | -82.24785 | 41087 ft | 470 kts | 13° |
| 2026-05-05 02:32 | 31.50609 | -82.21906 | 41093 ft | 471 kts | 13° |
| 2026-05-05 02:32 | 31.56692 | -82.19020 | 41095 ft | 471 kts | 13° |
| 2026-05-05 02:33 | 31.62789 | -82.16124 | 41100 ft | 472 kts | 13° |
| 2026-05-05 02:33 | 31.68847 | -82.13242 | 41099 ft | 472 kts | 13° |
| 2026-05-05 02:34 | 31.74954 | -82.10333 | 41108 ft | 473 kts | 13° |
| 2026-05-05 02:34 | 31.81061 | -82.07420 | 41109 ft | 473 kts | 13° |
| 2026-05-05 02:35 | 31.87105 | -82.04532 | 41108 ft | 473 kts | 13° |
| 2026-05-05 02:35 | 31.93213 | -82.01611 | 41106 ft | 473 kts | 13° |
| 2026-05-05 02:36 | 31.99288 | -81.98701 | 41093 ft | 473 kts | 13° |
| 2026-05-05 02:36 | 32.05393 | -81.95772 | 41095 ft | 473 kts | 13° |
| 2026-05-05 02:37 | 32.11499 | -81.92839 | 41106 ft | 473 kts | 13° |
| 2026-05-05 02:37 | 32.17581 | -81.90080 | 41109 ft | 471 kts | 12° |
| 2026-05-05 02:38 | 32.23720 | -81.87346 | 41097 ft | 471 kts | 12° |
| 2026-05-05 02:38 | 32.29853 | -81.84601 | 41105 ft | 471 kts | 12° |
| 2026-05-05 02:39 | 32.35952 | -81.81868 | 41101 ft | 472 kts | 12° |
| 2026-05-05 02:39 | 32.42100 | -81.79109 | 41098 ft | 472 kts | 12° |
| 2026-05-05 02:40 | 32.48247 | -81.76345 | 41094 ft | 472 kts | 12° |
| 2026-05-05 02:40 | 32.54352 | -81.73597 | 41096 ft | 472 kts | 13° |
| 2026-05-05 02:41 | 32.60493 | -81.70828 | 41099 ft | 471 kts | 12° |
| 2026-05-05 02:41 | 32.66637 | -81.68055 | 41107 ft | 471 kts | 13° |
| 2026-05-05 02:42 | 32.72767 | -81.65283 | 41119 ft | 471 kts | 13° |
| 2026-05-05 02:42 | 32.78866 | -81.62521 | 41107 ft | 471 kts | 13° |
| 2026-05-05 02:43 | 32.85004 | -81.59738 | 41116 ft | 471 kts | 13° |
| 2026-05-05 02:43 | 32.91102 | -81.56996 | 41110 ft | 469 kts | 12° |
| 2026-05-05 02:44 | 32.97260 | -81.54386 | 41107 ft | 469 kts | 12° |
| 2026-05-05 02:44 | 33.03371 | -81.51771 | 41098 ft | 469 kts | 12° |
| 2026-05-05 02:45 | 33.09524 | -81.49133 | 41103 ft | 469 kts | 12° |
| 2026-05-05 02:45 | 33.15660 | -81.46497 | 41094 ft | 468 kts | 12° |
| 2026-05-05 02:46 | 33.21752 | -81.43876 | 41106 ft | 468 kts | 12° |
| 2026-05-05 02:46 | 33.27900 | -81.41274 | 41111 ft | 464 kts | 9° |
| 2026-05-05 02:47 | 33.34049 | -81.39007 | 41114 ft | 465 kts | 10° |
| 2026-05-05 02:47 | 33.40215 | -81.36681 | 41109 ft | 464 kts | 10° |
| 2026-05-05 02:48 | 33.46382 | -81.34346 | 41099 ft | 464 kts | 10° |
| 2026-05-05 02:48 | 33.52541 | -81.32009 | 41100 ft | 464 kts | 10° |
| 2026-05-05 02:49 | 33.58708 | -81.29667 | 41086 ft | 464 kts | 10° |
| 2026-05-05 02:49 | 33.64838 | -81.27336 | 41087 ft | 464 kts | 10° |
| 2026-05-05 02:50 | 33.69984 | -81.25376 | 41082 ft | 464 kts | 11° |
| 2026-05-05 02:50 | 33.77138 | -81.22647 | 41082 ft | 464 kts | 11° |
| 2026-05-05 02:51 | 33.82297 | -81.20676 | 41083 ft | 464 kts | 11° |
| 2026-05-05 02:51 | 33.88415 | -81.18335 | 41084 ft | 464 kts | 11° |
| 2026-05-05 02:52 | 33.94568 | -81.15978 | 41079 ft | 464 kts | 11° |
| 2026-05-05 02:52 | 34.00728 | -81.13614 | 41084 ft | 464 kts | 11° |
| 2026-05-05 02:53 | 34.06887 | -81.11246 | 41082 ft | 462 kts | 11° |
| 2026-05-05 02:53 | 34.12989 | -81.08898 | 41096 ft | 462 kts | 11° |
| 2026-05-05 02:54 | 34.19117 | -81.06535 | 41092 ft | 462 kts | 11° |
| 2026-05-05 02:54 | 34.25210 | -81.04183 | 41086 ft | 462 kts | 11° |
| 2026-05-05 02:55 | 34.31350 | -81.01827 | 41092 ft | 462 kts | 11° |
| 2026-05-05 02:55 | 34.37504 | -80.99532 | 41087 ft | 462 kts | 11° |
| 2026-05-05 02:56 | 34.43652 | -80.97227 | 41088 ft | 462 kts | 11° |
| 2026-05-05 02:56 | 34.49777 | -80.94926 | 41091 ft | 462 kts | 11° |
| 2026-05-05 02:57 | 34.55938 | -80.92609 | 41092 ft | 462 kts | 11° |
| 2026-05-05 02:57 | 34.62061 | -80.90301 | 41084 ft | 462 kts | 11° |
| 2026-05-05 02:58 | 34.68207 | -80.87982 | 41083 ft | 462 kts | 11° |
| 2026-05-05 02:58 | 34.74363 | -80.85656 | 41083 ft | 462 kts | 11° |
| 2026-05-05 02:59 | 34.80473 | -80.83343 | 41080 ft | 462 kts | 11° |
| 2026-05-05 02:59 | 34.86627 | -80.81010 | 41079 ft | 462 kts | 11° |
| 2026-05-05 03:00 | 34.92776 | -80.78675 | 41072 ft | 462 kts | 11° |
| 2026-05-05 03:00 | 34.98877 | -80.76354 | 41063 ft | 462 kts | 11° |
| 2026-05-05 03:01 | 35.05015 | -80.74017 | 41058 ft | 462 kts | 11° |
| 2026-05-05 03:01 | 35.11168 | -80.71669 | 41055 ft | 462 kts | 11° |
| 2026-05-05 03:02 | 35.17311 | -80.69321 | 41058 ft | 462 kts | 11° |
| 2026-05-05 03:02 | 35.23448 | -80.66973 | 41063 ft | 462 kts | 11° |
| 2026-05-05 03:03 | 35.29552 | -80.64633 | 41063 ft | 462 kts | 11° |
| 2026-05-05 03:03 | 35.35677 | -80.62280 | 41084 ft | 459 kts | 12° |
| 2026-05-05 03:04 | 35.41756 | -80.59944 | 41078 ft | 456 kts | 12° |
| 2026-05-05 03:04 | 35.47826 | -80.57605 | 41082 ft | 457 kts | 12° |
| 2026-05-05 03:05 | 35.53850 | -80.55282 | 41067 ft | 456 kts | 12° |
| 2026-05-05 03:05 | 35.59931 | -80.52932 | 41056 ft | 456 kts | 12° |
| 2026-05-05 03:06 | 35.65957 | -80.50600 | 41046 ft | 456 kts | 12° |
| 2026-05-05 03:06 | 35.72033 | -80.48245 | 41048 ft | 457 kts | 12° |
| 2026-05-05 03:07 | 35.78098 | -80.45891 | 41049 ft | 457 kts | 12° |
| 2026-05-05 03:07 | 35.84173 | -80.43529 | 41054 ft | 457 kts | 12° |
| 2026-05-05 03:08 | 35.90205 | -80.41180 | 41055 ft | 457 kts | 12° |
| 2026-05-05 03:08 | 35.96275 | -80.38809 | 41054 ft | 457 kts | 13° |
| 2026-05-05 03:09 | 36.02339 | -80.36366 | 41043 ft | 457 kts | 13° |
| 2026-05-05 03:09 | 36.08364 | -80.33943 | 41047 ft | 458 kts | 13° |
| 2026-05-05 03:10 | 36.14420 | -80.31503 | 41046 ft | 458 kts | 13° |
| 2026-05-05 03:10 | 36.20488 | -80.29056 | 41042 ft | 458 kts | 13° |
| 2026-05-05 03:11 | 36.26522 | -80.26618 | 41046 ft | 458 kts | 13° |
| 2026-05-05 03:11 | 36.32588 | -80.24163 | 41048 ft | 458 kts | 13° |
| 2026-05-05 03:12 | 36.38602 | -80.21725 | 41040 ft | 458 kts | 13° |
| 2026-05-05 03:12 | 36.44667 | -80.19263 | 41057 ft | 457 kts | 13° |
| 2026-05-05 03:13 | 36.50730 | -80.16797 | 41043 ft | 457 kts | 13° |
| 2026-05-05 03:13 | 36.56747 | -80.14346 | 41045 ft | 457 kts | 13° |
| 2026-05-05 03:14 | 36.62790 | -80.11880 | 41056 ft | 457 kts | 13° |
| 2026-05-05 03:14 | 36.68845 | -80.09405 | 41053 ft | 457 kts | 13° |
| 2026-05-05 03:15 | 36.74871 | -80.06938 | 41053 ft | 457 kts | 13° |
| 2026-05-05 03:15 | 36.80928 | -80.04455 | 41054 ft | 457 kts | 13° |
| 2026-05-05 03:16 | 36.86948 | -80.01982 | 41055 ft | 457 kts | 13° |
| 2026-05-05 03:16 | 36.93006 | -79.99490 | 41049 ft | 457 kts | 13° |
| 2026-05-05 03:17 | 36.99029 | -79.97007 | 41038 ft | 459 kts | 13° |
| 2026-05-05 03:17 | 37.05097 | -79.94502 | 41032 ft | 458 kts | 13° |
| 2026-05-05 03:18 | 37.11165 | -79.91993 | 41014 ft | 458 kts | 13° |
| 2026-05-05 03:18 | 37.17230 | -79.89482 | 41017 ft | 459 kts | 13° |
| 2026-05-05 03:19 | 37.26269 | -79.85623 | 41010 ft | 459 kts | 14° |
| 2026-05-05 03:19 | 37.32331 | -79.83018 | 41008 ft | 459 kts | 14° |
| 2026-05-05 03:20 | 37.38376 | -79.80417 | 41005 ft | 459 kts | 14° |
| 2026-05-05 03:20 | 37.44421 | -79.77812 | 41012 ft | 459 kts | 14° |
| 2026-05-05 03:21 | 37.50444 | -79.75211 | 41010 ft | 459 kts | 14° |
| 2026-05-05 03:21 | 37.56488 | -79.72597 | 41012 ft | 459 kts | 14° |
| 2026-05-05 03:22 | 37.62504 | -79.69991 | 40998 ft | 458 kts | 14° |
| 2026-05-05 03:22 | 37.68540 | -79.67371 | 41028 ft | 460 kts | 14° |
| 2026-05-05 03:23 | 37.74593 | -79.64739 | 41027 ft | 459 kts | 14° |
| 2026-05-05 03:23 | 37.80641 | -79.62105 | 41026 ft | 459 kts | 14° |
| 2026-05-05 03:24 | 37.86647 | -79.59485 | 41038 ft | 459 kts | 14° |
| 2026-05-05 03:24 | 37.92688 | -79.56845 | 41045 ft | 459 kts | 14° |
| 2026-05-05 03:25 | 37.98706 | -79.54210 | 41027 ft | 459 kts | 14° |
| 2026-05-05 03:25 | 38.04744 | -79.51563 | 41034 ft | 459 kts | 14° |
| 2026-05-05 03:26 | 38.10793 | -79.48905 | 41011 ft | 458 kts | 14° |
| 2026-05-05 03:26 | 38.16796 | -79.46264 | 41008 ft | 458 kts | 14° |
| 2026-05-05 03:27 | 38.22832 | -79.43603 | 41002 ft | 458 kts | 14° |
| 2026-05-05 03:27 | 38.28833 | -79.40953 | 41001 ft | 458 kts | 14° |
| 2026-05-05 03:28 | 38.34863 | -79.38285 | 40990 ft | 458 kts | 14° |
| 2026-05-05 03:28 | 38.40900 | -79.35609 | 40985 ft | 458 kts | 14° |
| 2026-05-05 03:29 | 38.46933 | -79.32931 | 40974 ft | 458 kts | 15° |
| 2026-05-05 03:29 | 38.52919 | -79.30268 | 40971 ft | 458 kts | 15° |
| 2026-05-05 03:30 | 38.58947 | -79.27583 | 40963 ft | 458 kts | 15° |
| 2026-05-05 03:30 | 38.64973 | -79.24894 | 40955 ft | 458 kts | 15° |
| 2026-05-05 03:31 | 38.70964 | -79.22215 | 40949 ft | 458 kts | 15° |
| 2026-05-05 03:31 | 38.76995 | -79.19513 | 40947 ft | 458 kts | 15° |
| 2026-05-05 03:32 | 38.83015 | -79.16810 | 40942 ft | 458 kts | 15° |
| 2026-05-05 03:32 | 38.89034 | -79.14105 | 40927 ft | 458 kts | 15° |
| 2026-05-05 03:33 | 38.95012 | -79.11414 | 40929 ft | 458 kts | 15° |
| 2026-05-05 03:33 | 39.01024 | -79.08701 | 40926 ft | 458 kts | 15° |
| 2026-05-05 03:34 | 39.07046 | -79.05981 | 40921 ft | 458 kts | 15° |
| 2026-05-05 03:34 | 39.13060 | -79.03259 | 40923 ft | 458 kts | 15° |
| 2026-05-05 03:35 | 39.19044 | -79.00545 | 40928 ft | 458 kts | 15° |
| 2026-05-05 03:35 | 39.24964 | -78.97413 | 40950 ft | 461 kts | 20° |
| 2026-05-05 03:36 | 39.30822 | -78.94027 | 40926 ft | 460 kts | 19° |
| 2026-05-05 03:36 | 39.36658 | -78.90697 | 40935 ft | 460 kts | 19° |
| 2026-05-05 03:37 | 39.42533 | -78.87342 | 40935 ft | 460 kts | 20° |
| 2026-05-05 03:37 | 39.48387 | -78.83994 | 40934 ft | 460 kts | 19° |
| 2026-05-05 03:38 | 39.53256 | -78.81204 | 40934 ft | 460 kts | 19° |
| 2026-05-05 03:38 | 39.59116 | -78.77841 | 40935 ft | 460 kts | 19° |
| 2026-05-05 03:39 | 39.64944 | -78.74490 | 40932 ft | 460 kts | 19° |
| 2026-05-05 03:39 | 39.70797 | -78.71118 | 40934 ft | 460 kts | 19° |
| 2026-05-05 03:40 | 39.76619 | -78.67758 | 40931 ft | 459 kts | 20° |
| 2026-05-05 03:40 | 39.82474 | -78.64373 | 40925 ft | 460 kts | 19° |
| 2026-05-05 03:41 | 39.88333 | -78.60979 | 40915 ft | 460 kts | 19° |
| 2026-05-05 03:41 | 39.94156 | -78.57598 | 40905 ft | 460 kts | 20° |
| 2026-05-05 03:42 | 40.00006 | -78.54197 | 40894 ft | 459 kts | 20° |
| 2026-05-05 03:42 | 40.05857 | -78.50789 | 40890 ft | 459 kts | 19° |
| 2026-05-05 03:43 | 40.11653 | -78.47405 | 40884 ft | 459 kts | 19° |
| 2026-05-05 03:43 | 40.17498 | -78.43988 | 40881 ft | 459 kts | 20° |
| 2026-05-05 03:44 | 40.23338 | -78.40567 | 40887 ft | 459 kts | 20° |
| 2026-05-05 03:44 | 40.29173 | -78.37143 | 40886 ft | 459 kts | 20° |
| 2026-05-05 03:45 | 40.34960 | -78.33673 | 40886 ft | 459 kts | 20° |
| 2026-05-05 03:45 | 40.40772 | -78.30171 | 40893 ft | 459 kts | 20° |
| 2026-05-05 03:46 | 40.46590 | -78.26663 | 40884 ft | 459 kts | 20° |
| 2026-05-05 03:46 | 40.52366 | -78.23171 | 40876 ft | 459 kts | 20° |
| 2026-05-05 03:47 | 40.58197 | -78.19642 | 40882 ft | 459 kts | 20° |
| 2026-05-05 03:47 | 40.63999 | -78.16124 | 40883 ft | 459 kts | 20° |
| 2026-05-05 03:48 | 40.69777 | -78.12612 | 40874 ft | 460 kts | 20° |
| 2026-05-05 03:48 | 40.75602 | -78.09065 | 40872 ft | 459 kts | 20° |
| 2026-05-05 03:49 | 40.81373 | -78.05544 | 40861 ft | 460 kts | 20° |
| 2026-05-05 03:49 | 40.87195 | -78.01985 | 40871 ft | 460 kts | 20° |
| 2026-05-05 03:50 | 40.92957 | -77.98207 | 40872 ft | 463 kts | 25° |
| 2026-05-05 03:50 | 40.98556 | -77.93962 | 40869 ft | 464 kts | 25° |
| 2026-05-05 03:51 | 41.04114 | -77.89701 | 40875 ft | 464 kts | 26° |
| 2026-05-05 03:51 | 41.09707 | -77.85402 | 40860 ft | 464 kts | 26° |
| 2026-05-05 03:52 | 41.15309 | -77.81086 | 40861 ft | 465 kts | 26° |
| 2026-05-05 03:52 | 41.20912 | -77.76762 | 40856 ft | 465 kts | 26° |
| 2026-05-05 03:53 | 41.26463 | -77.72469 | 40850 ft | 464 kts | 25° |
| 2026-05-05 03:53 | 41.32050 | -77.68139 | 40848 ft | 464 kts | 25° |
| 2026-05-05 03:54 | 41.37637 | -77.63800 | 40840 ft | 464 kts | 25° |
| 2026-05-05 03:54 | 41.43223 | -77.59454 | 40835 ft | 464 kts | 26° |
| 2026-05-05 03:55 | 41.48801 | -77.55105 | 40831 ft | 464 kts | 26° |
| 2026-05-05 03:55 | 41.54346 | -77.50773 | 40822 ft | 464 kts | 26° |
| 2026-05-05 03:56 | 41.59924 | -77.46408 | 40820 ft | 464 kts | 26° |
| 2026-05-05 03:56 | 41.65504 | -77.42029 | 40825 ft | 464 kts | 26° |
| 2026-05-05 03:57 | 41.71041 | -77.37678 | 40823 ft | 464 kts | 26° |
| 2026-05-05 03:57 | 41.76625 | -77.33280 | 40827 ft | 464 kts | 26° |
| 2026-05-05 03:58 | 41.82205 | -77.28878 | 40813 ft | 464 kts | 26° |
| 2026-05-05 03:58 | 41.87735 | -77.24505 | 40820 ft | 465 kts | 26° |
| 2026-05-05 03:59 | 41.93304 | -77.20091 | 40811 ft | 464 kts | 26° |
| 2026-05-05 03:59 | 41.98878 | -77.15665 | 40808 ft | 465 kts | 26° |
| 2026-05-05 04:00 | 42.04456 | -77.11228 | 40798 ft | 466 kts | 26° |
| 2026-05-05 04:00 | 42.10013 | -77.06797 | 40791 ft | 466 kts | 26° |
| 2026-05-05 04:01 | 42.15594 | -77.02338 | 40785 ft | 466 kts | 26° |
| 2026-05-05 04:01 | 42.21151 | -76.97889 | 40791 ft | 466 kts | 26° |
| 2026-05-05 04:02 | 42.26732 | -76.93412 | 40787 ft | 466 kts | 26° |
| 2026-05-05 04:02 | 42.32313 | -76.88925 | 40782 ft | 466 kts | 26° |
| 2026-05-05 04:03 | 42.37855 | -76.84460 | 40788 ft | 466 kts | 26° |
| 2026-05-05 04:03 | 42.43431 | -76.79959 | 40784 ft | 466 kts | 26° |
| 2026-05-05 04:04 | 42.49012 | -76.75444 | 40782 ft | 467 kts | 26° |
| 2026-05-05 04:04 | 42.54594 | -76.70919 | 40785 ft | 467 kts | 26° |
| 2026-05-05 04:05 | 42.60178 | -76.66383 | 40785 ft | 467 kts | 26° |
| 2026-05-05 04:05 | 42.65721 | -76.61870 | 40780 ft | 467 kts | 26° |
| 2026-05-05 04:06 | 42.71306 | -76.57313 | 40774 ft | 467 kts | 26° |
| 2026-05-05 04:06 | 42.76856 | -76.52776 | 40767 ft | 467 kts | 26° |
| 2026-05-05 04:07 | 42.82431 | -76.48209 | 40765 ft | 467 kts | 26° |
| 2026-05-05 04:07 | 42.88008 | -76.43629 | 40761 ft | 467 kts | 26° |
| 2026-05-05 04:08 | 42.93576 | -76.39049 | 40763 ft | 467 kts | 26° |
| 2026-05-05 04:08 | 42.99153 | -76.34452 | 40756 ft | 467 kts | 26° |
| 2026-05-05 04:09 | 43.04686 | -76.29883 | 40748 ft | 468 kts | 26° |
| 2026-05-05 04:09 | 43.10251 | -76.25277 | 40745 ft | 468 kts | 26° |
| 2026-05-05 04:10 | 43.15939 | -76.21031 | 40717 ft | 458 kts | 12° |
| 2026-05-05 04:10 | 43.22135 | -76.19519 | 40714 ft | 452 kts | 3° |
| 2026-05-05 04:11 | 43.28329 | -76.18330 | 40732 ft | 451 kts | 2° |
| 2026-05-05 04:11 | 43.34564 | -76.17218 | 40731 ft | 451 kts | 2° |
| 2026-05-05 04:12 | 43.40792 | -76.16123 | 40722 ft | 451 kts | 2° |
| 2026-05-05 04:12 | 43.47036 | -76.15023 | 40720 ft | 452 kts | 2° |
| 2026-05-05 04:13 | 43.53246 | -76.13927 | 40719 ft | 452 kts | 2° |
| 2026-05-05 04:13 | 43.59493 | -76.12823 | 40722 ft | 452 kts | 2° |
| 2026-05-05 04:14 | 43.65745 | -76.11715 | 40711 ft | 452 kts | 2° |
| 2026-05-05 04:14 | 43.71948 | -76.10614 | 40710 ft | 452 kts | 2° |
| 2026-05-05 04:15 | 43.78195 | -76.09502 | 40702 ft | 452 kts | 2° |
| 2026-05-05 04:15 | 43.84445 | -76.08388 | 40701 ft | 452 kts | 2° |
| 2026-05-05 04:16 | 43.90650 | -76.07280 | 40691 ft | 452 kts | 2° |
| 2026-05-05 04:16 | 43.96724 | -76.04849 | 40684 ft | 465 kts | 26° |
| 2026-05-05 04:17 | 44.02289 | -76.00151 | 40679 ft | 469 kts | 27° |
| 2026-05-05 04:17 | 44.07821 | -75.95335 | 39800 ft | 470 kts | 27° |
| 2026-05-05 04:18 | 44.10605 | -75.92879 | 38666 ft | 474 kts | 27° |
| 2026-05-05 04:18 | 44.13343 | -75.90451 | 37849 ft | 469 kts | 27° |
| 2026-05-05 04:18 | 44.16092 | -75.88015 | 37029 ft | 466 kts | 27° |
| 2026-05-05 04:18 | 44.18805 | -75.85605 | 36156 ft | 457 kts | 26° |
| 2026-05-05 04:19 | 44.21460 | -75.83245 | 35314 ft | 448 kts | 26° |
| 2026-05-05 04:19 | 44.24080 | -75.80914 | 34498 ft | 448 kts | 26° |
| 2026-05-05 04:19 | 44.26739 | -75.78547 | 33601 ft | 455 kts | 26° |
| 2026-05-05 04:19 | 44.29419 | -75.76156 | 32688 ft | 458 kts | 26° |
| 2026-05-05 04:20 | 44.32076 | -75.73784 | 31764 ft | 460 kts | 26° |
| 2026-05-05 04:20 | 44.34782 | -75.71367 | 30775 ft | 464 kts | 26° |
| 2026-05-05 04:20 | 44.37517 | -75.68918 | 29728 ft | 467 kts | 26° |
| 2026-05-05 04:20 | 44.40273 | -75.66452 | 28585 ft | 471 kts | 27° |
| 2026-05-05 04:21 | 44.43054 | -75.63958 | 27766 ft | 476 kts | 27° |
| 2026-05-05 04:21 | 44.45858 | -75.61439 | 27493 ft | 481 kts | 27° |
| 2026-05-05 04:21 | 44.48658 | -75.58922 | 27311 ft | 487 kts | 27° |
| 2026-05-05 04:21 | 44.51514 | -75.56353 | 27145 ft | 488 kts | 27° |
| 2026-05-05 04:22 | 44.54376 | -75.53774 | 26957 ft | 488 kts | 27° |
| 2026-05-05 04:22 | 44.57248 | -75.51182 | 26768 ft | 489 kts | 28° |
| 2026-05-05 04:22 | 44.60116 | -75.48593 | 26579 ft | 489 kts | 28° |
| 2026-05-05 04:22 | 44.62983 | -75.46001 | 26393 ft | 490 kts | 28° |
| 2026-05-05 04:23 | 44.65813 | -75.43440 | 26201 ft | 490 kts | 28° |
| 2026-05-05 04:23 | 44.68689 | -75.40824 | 26025 ft | 490 kts | 28° |
| 2026-05-05 04:23 | 44.71519 | -75.38133 | 25805 ft | 495 kts | 35° |
| 2026-05-05 04:23 | 44.73960 | -75.34652 | 25590 ft | 501 kts | 46° |
| 2026-05-05 04:24 | 44.76278 | -75.30979 | 25444 ft | 501 kts | 44° |
| 2026-05-05 04:24 | 44.78621 | -75.27327 | 25264 ft | 502 kts | 45° |
| 2026-05-05 04:24 | 44.80913 | -75.23688 | 25070 ft | 502 kts | 45° |
| 2026-05-05 04:25 | 44.85507 | -75.16271 | 24695 ft | 500 kts | 46° |
| 2026-05-05 04:25 | 44.87787 | -75.12567 | 24512 ft | 498 kts | 46° |
| 2026-05-05 04:25 | 44.89290 | -75.10124 | 24377 ft | 497 kts | 46° |
| 2026-05-05 04:25 | 44.92293 | -75.05239 | 24123 ft | 496 kts | 46° |
| 2026-05-05 04:26 | 44.94551 | -75.01557 | 23934 ft | 494 kts | 46° |
| 2026-05-05 04:26 | 44.96038 | -74.99130 | 23819 ft | 493 kts | 46° |
| 2026-05-05 04:26 | 44.98221 | -74.95368 | 23498 ft | 494 kts | 53° |
| 2026-05-05 04:26 | 44.99931 | -74.91162 | 22868 ft | 492 kts | 59° |
| 2026-05-05 04:27 | 45.01653 | -74.86992 | 22315 ft | 488 kts | 56° |
| 2026-05-05 04:27 | 45.03348 | -74.82884 | 21728 ft | 474 kts | 57° |
| 2026-05-05 04:27 | 45.04965 | -74.78890 | 21136 ft | 463 kts | 57° |
| 2026-05-05 04:27 | 45.06518 | -74.75006 | 20584 ft | 454 kts | 57° |
| 2026-05-05 04:28 | 45.08047 | -74.71160 | 20032 ft | 444 kts | 57° |
| 2026-05-05 04:28 | 45.09547 | -74.67377 | 19494 ft | 436 kts | 57° |
| 2026-05-05 04:28 | 45.11021 | -74.63654 | 18957 ft | 428 kts | 57° |
| 2026-05-05 04:28 | 45.12542 | -74.60068 | 18318 ft | 417 kts | 54° |
| 2026-05-05 04:29 | 45.14039 | -74.56665 | 17864 ft | 399 kts | 54° |
| 2026-05-05 04:29 | 45.15496 | -74.53324 | 17348 ft | 397 kts | 54° |
| 2026-05-05 04:29 | 45.16916 | -74.50055 | 17006 ft | 389 kts | 54° |
| 2026-05-05 04:29 | 45.18337 | -74.46776 | 16646 ft | 389 kts | 54° |
| 2026-05-05 04:30 | 45.19747 | -74.43517 | 16199 ft | 387 kts | 55° |
| 2026-05-05 04:30 | 45.21155 | -74.40268 | 15694 ft | 386 kts | 54° |
| 2026-05-05 04:30 | 45.22554 | -74.37035 | 15293 ft | 380 kts | 55° |
| 2026-05-05 04:30 | 45.23925 | -74.33865 | 14858 ft | 369 kts | 55° |
| 2026-05-05 04:31 | 45.25240 | -74.30820 | 14442 ft | 354 kts | 55° |
| 2026-05-05 04:31 | 45.26491 | -74.27919 | 14035 ft | 343 kts | 55° |
| 2026-05-05 04:31 | 45.27739 | -74.25026 | 13627 ft | 344 kts | 55° |
| 2026-05-05 04:31 | 45.28984 | -74.22134 | 13201 ft | 342 kts | 55° |
| 2026-05-05 04:32 | 45.30225 | -74.19250 | 12795 ft | 339 kts | 56° |
| 2026-05-05 04:32 | 45.31448 | -74.16404 | 12443 ft | 336 kts | 56° |
| 2026-05-05 04:32 | 45.32653 | -74.13599 | 12056 ft | 334 kts | 56° |
| 2026-05-05 04:32 | 45.33865 | -74.10773 | 11617 ft | 329 kts | 56° |
| 2026-05-05 04:33 | 45.35048 | -74.08012 | 11046 ft | 333 kts | 57° |
| 2026-05-05 04:33 | 45.36309 | -74.05320 | 10495 ft | 324 kts | 45° |
| 2026-05-05 04:33 | 45.37951 | -74.03151 | 9794 ft | 321 kts | 39° |
| 2026-05-05 04:33 | 45.39608 | -74.01023 | 9185 ft | 320 kts | 40° |
| 2026-05-05 04:34 | 45.41221 | -73.98935 | 9063 ft | 309 kts | 40° |
| 2026-05-05 04:34 | 45.42806 | -73.96876 | 9037 ft | 308 kts | 40° |
| 2026-05-05 04:34 | 45.44389 | -73.94817 | 9002 ft | 308 kts | 40° |
| 2026-05-05 04:34 | 45.45970 | -73.92756 | 8999 ft | 308 kts | 40° |
| 2026-05-05 04:35 | 45.47550 | -73.90698 | 9000 ft | 307 kts | 40° |
| 2026-05-05 04:35 | 45.49116 | -73.88656 | 8740 ft | 305 kts | 40° |
| 2026-05-05 04:35 | 45.50662 | -73.86636 | 8378 ft | 303 kts | 41° |
| 2026-05-05 04:35 | 45.52213 | -73.84610 | 7822 ft | 305 kts | 41° |
| 2026-05-05 04:36 | 45.53757 | -73.82590 | 7256 ft | 301 kts | 41° |
| 2026-05-05 04:36 | 45.55301 | -73.80568 | 6735 ft | 299 kts | 41° |
| 2026-05-05 04:36 | 45.56828 | -73.78570 | 6193 ft | 296 kts | 41° |
| 2026-05-05 04:36 | 45.58342 | -73.76586 | 5643 ft | 293 kts | 41° |
| 2026-05-05 04:37 | 45.59843 | -73.74616 | 5056 ft | 292 kts | 41° |
| 2026-05-05 04:37 | 45.61332 | -73.72661 | 4494 ft | 290 kts | 41° |
| 2026-05-05 04:37 | 45.62789 | -73.70748 | 4091 ft | 282 kts | 43° |
| 2026-05-05 04:37 | 45.64165 | -73.68938 | 4083 ft | 256 kts | 43° |
| 2026-05-05 04:38 | 45.65458 | -73.67236 | 4055 ft | 250 kts | 43° |
| 2026-05-05 04:38 | 45.66722 | -73.65572 | 3869 ft | 246 kts | 43° |
| 2026-05-05 04:38 | 45.67982 | -73.63912 | 3579 ft | 245 kts | 43° |
| 2026-05-05 04:38 | 45.69235 | -73.62262 | 3325 ft | 244 kts | 43° |
| 2026-05-05 04:39 | 45.70476 | -73.60624 | 3096 ft | 241 kts | 44° |
| 2026-05-05 04:39 | 45.71687 | -73.59014 | 2994 ft | 241 kts | 44° |
| 2026-05-05 04:39 | 45.72901 | -73.57341 | 2984 ft | 241 kts | 50° |
| 2026-05-05 04:39 | 45.73643 | -73.55264 | 2988 ft | 233 kts | 83° |
| 2026-05-05 04:40 | 45.73527 | -73.53027 | 3012 ft | 224 kts | 116° |
| 2026-05-05 04:40 | 45.72700 | -73.51191 | 3035 ft | 218 kts | 135° |
| 2026-05-05 04:40 | 45.71700 | -73.49553 | 3031 ft | 218 kts | 136° |
| 2026-05-05 04:40 | 45.70515 | -73.48354 | 2987 ft | 209 kts | 165° |
| 2026-05-05 04:41 | 45.69097 | -73.48174 | 3011 ft | 204 kts | 185° |
| 2026-05-05 04:41 | 45.67713 | -73.48542 | 2990 ft | 203 kts | 205° |
| 2026-05-05 04:41 | 45.66554 | -73.49680 | 3009 ft | 197 kts | 219° |
| 2026-05-05 04:41 | 45.65577 | -73.50914 | 3003 ft | 177 kts | 221° |
| 2026-05-05 04:42 | 45.64692 | -73.52068 | 2997 ft | 172 kts | 221° |
| 2026-05-05 04:42 | 45.63809 | -73.53228 | 2999 ft | 172 kts | 221° |
| 2026-05-05 04:42 | 45.62928 | -73.54387 | 3005 ft | 172 kts | 221° |
| 2026-05-05 04:42 | 45.62046 | -73.55550 | 3009 ft | 173 kts | 221° |
| 2026-05-05 04:43 | 45.61163 | -73.56715 | 2995 ft | 173 kts | 221° |
| 2026-05-05 04:43 | 45.60281 | -73.57877 | 3014 ft | 173 kts | 221° |
| 2026-05-05 04:43 | 45.59396 | -73.59043 | 2939 ft | 173 kts | 221° |
| 2026-05-05 04:43 | 45.58528 | -73.60190 | 2750 ft | 172 kts | 221° |
| 2026-05-05 04:44 | 45.57640 | -73.61356 | 2550 ft | 174 kts | 221° |
| 2026-05-05 04:44 | 45.56746 | -73.62533 | 2323 ft | 173 kts | 220° |
| 2026-05-05 04:44 | 45.55913 | -73.63629 | 2131 ft | 153 kts | 220° |
| 2026-05-05 04:44 | 45.55190 | -73.64582 | 1962 ft | 132 kts | 220° |
| 2026-05-05 04:45 | 45.54537 | -73.65436 | 1789 ft | 125 kts | 220° |
| 2026-05-05 04:45 | 45.53904 | -73.66279 | 1628 ft | 124 kts | 220° |
| 2026-05-05 04:45 | 45.53255 | -73.67124 | 1462 ft | 128 kts | 219° |
| 2026-05-05 04:45 | 45.52601 | -73.67979 | 1289 ft | 130 kts | 220° |
| 2026-05-05 04:46 | 45.51942 | -73.68866 | 1100 ft | 128 kts | 220° |
| 2026-05-05 04:46 | 45.51294 | -73.69724 | 913 ft | 128 kts | 220° |
| 2026-05-05 04:46 | 45.50639 | -73.70592 | 753 ft | 129 kts | 220° |
| 2026-05-05 04:46 | 45.49972 | -73.71452 | 616 ft | 129 kts | 219° |
| 2026-05-05 04:47 | 45.49312 | -73.72314 | 438 ft | 132 kts | 220° |
| 2026-05-05 04:47 | 45.48631 | -73.73206 | 256 ft | 134 kts | 221° |
| 2026-05-05 04:47 | 45.47956 | -73.74083 | 116 ft | 125 kts | 220° |
| 2026-05-05 04:47 | 45.47489 | -73.74683 | 113 ft | 57 kts | 222° |
| 2026-05-05 04:48 | 45.47226 | -73.74938 | 116 ft | 43 kts | 194° |
| 2026-05-05 04:48 | 45.46994 | -73.75020 | 110 ft | 26 kts | 193° |
| 2026-05-05 04:48 | 45.46842 | -73.75036 | 110 ft | 24 kts | 178° |
| 2026-05-05 04:48 | 45.46660 | -73.75027 | 110 ft | 28 kts | 178° |
| 2026-05-05 04:49 | 45.46462 | -73.75015 | 108 ft | 31 kts | 178° |
| 2026-05-05 04:49 | 45.46266 | -73.75003 | 108 ft | 28 kts | 177° |
| 2026-05-05 04:49 | 45.46153 | -73.75024 | 105 ft | 7 kts | 234° |
| 2026-05-05 04:49 | 45.46146 | -73.75122 | 105 ft | 18 kts | 269° |
| 2026-05-05 04:50 | 45.46140 | -73.75328 | 103 ft | 15 kts | 258° |
| 2026-05-05 04:50 | 45.46078 | -73.75392 | 105 ft | 9 kts | 236° |
| 2026-05-05 04:50 | 45.46065 | -73.75533 | 107 ft | 22 kts | 268° |
| 2026-05-05 04:50 | 45.46056 | -73.75790 | 106 ft | 20 kts | 267° |
| 2026-05-05 04:51 | 45.46050 | -73.75986 | 107 ft | 18 kts | 268° |
| 2026-05-05 04:51 | 45.45990 | -73.76059 | 107 ft | 14 kts | 180° |
| 2026-05-05 04:51 | 45.45871 | -73.76048 | 106 ft | 20 kts | 171° |
| 2026-05-05 04:51 | 45.45743 | -73.75974 | 107 ft | 21 kts | 133° |
| 2026-05-05 04:52 | 45.45666 | -73.75839 | 105 ft | 13 kts | 128° |
| 2026-05-05 04:52 | 45.45577 | -73.75782 | 106 ft | 17 kts | 168° |
| 2026-05-05 04:52 | 45.45501 | -73.75819 | 106 ft | 9 kts | 227° |
| 2026-05-05 04:52 | 45.45477 | -73.75856 | 107 ft | 3 kts | 228° |
| 2026-05-05 04:53 | 45.45470 | -73.75867 | 106 ft | 0 kts | 228° |